sensor_id;sensor_type;location;lat;lon;timestamp;temperature;humidity
25332;DHT22;13284;52.748;13.452;2023-02-28T00:00:18;-1.80;99.90
25332;DHT22;13284;52.748;13.452;2023-02-28T00:02:45;-1.80;99.90
25332;DHT22;13284;52.748;13.452;2023-02-28T00:05:13;-2.00;99.90
25332;DHT22;13284;52.748;13.452;2023-02-28T00:07:39;-2.00;99.90
25332;DHT22;13284;52.748;13.452;2023-02-28T00:10:06;-2.00;99.90
25332;DHT22;13284;52.748;13.452;2023-02-28T00:12:33;-2.00;99.90
25332;DHT22;13284;52.748;13.452;2023-02-28T00:14:59;-2.10;99.90
25332;DHT22;13284;52.748;13.452;2023-02-28T00:17:25;-2.00;99.90
25332;DHT22;13284;52.748;13.452;2023-02-28T00:19:51;-2.00;99.90
25332;DHT22;13284;52.748;13.452;2023-02-28T00:22:18;-2.10;99.90
25332;DHT22;13284;52.748;13.452;2023-02-28T00:24:44;-2.20;99.90
25332;DHT22;13284;52.748;13.452;2023-02-28T00:27:10;-2.10;99.90
25332;DHT22;13284;52.748;13.452;2023-02-28T00:29:36;-2.20;99.90
25332;DHT22;13284;52.748;13.452;2023-02-28T00:32:02;-2.20;99.90
25332;DHT22;13284;52.748;13.452;2023-02-28T00:34:28;-2.20;99.90
25332;DHT22;13284;52.748;13.452;2023-02-28T00:36:54;-2.40;99.90
25332;DHT22;13284;52.748;13.452;2023-02-28T00:39:19;-2.40;99.90
25332;DHT22;13284;52.748;13.452;2023-02-28T00:41:45;-2.40;99.90
25332;DHT22;13284;52.748;13.452;2023-02-28T00:44:10;-2.50;99.90
25332;DHT22;13284;52.748;13.452;2023-02-28T00:46:36;-2.50;99.90
25332;DHT22;13284;52.748;13.452;2023-02-28T00:49:01;-2.50;99.90
25332;DHT22;13284;52.748;13.452;2023-02-28T00:51:27;-2.50;99.90
25332;DHT22;13284;52.748;13.452;2023-02-28T00:53:53;-2.50;99.90
25332;DHT22;13284;52.748;13.452;2023-02-28T00:56:19;-2.60;99.90
25332;DHT22;13284;52.748;13.452;2023-02-28T00:58:44;-2.50;99.90
25332;DHT22;13284;52.748;13.452;2023-02-28T01:01:10;-2.70;99.90
25332;DHT22;13284;52.748;13.452;2023-02-28T01:03:35;-2.50;99.90
25332;DHT22;13284;52.748;13.452;2023-02-28T01:06:01;-2.70;99.90
25332;DHT22;13284;52.748;13.452;2023-02-28T01:08:26;-2.70;99.90
25332;DHT22;13284;52.748;13.452;2023-02-28T01:10:52;-2.70;99.90
25332;DHT22;13284;52.748;13.452;2023-02-28T01:13:19;-2.70;99.90
25332;DHT22;13284;52.748;13.452;2023-02-28T01:15:52;-2.80;99.90
25332;DHT22;13284;52.748;13.452;2023-02-28T01:18:20;-2.80;99.90
25332;DHT22;13284;52.748;13.452;2023-02-28T01:20:52;-2.80;99.90
25332;DHT22;13284;52.748;13.452;2023-02-28T01:23:19;-2.80;99.90
25332;DHT22;13284;52.748;13.452;2023-02-28T01:25:45;-2.80;99.90
25332;DHT22;13284;52.748;13.452;2023-02-28T01:28:10;-2.80;99.90
25332;DHT22;13284;52.748;13.452;2023-02-28T01:30:39;-2.80;99.90
25332;DHT22;13284;52.748;13.452;2023-02-28T01:33:05;-2.80;99.90
25332;DHT22;13284;52.748;13.452;2023-02-28T01:35:34;-2.90;99.90
25332;DHT22;13284;52.748;13.452;2023-02-28T01:38:00;-2.90;99.90
25332;DHT22;13284;52.748;13.452;2023-02-28T01:40:26;-2.90;99.90
25332;DHT22;13284;52.748;13.452;2023-02-28T01:42:52;-2.90;99.90
25332;DHT22;13284;52.748;13.452;2023-02-28T01:45:30;-3.00;99.90
25332;DHT22;13284;52.748;13.452;2023-02-28T01:47:58;-3.00;99.90
25332;DHT22;13284;52.748;13.452;2023-02-28T01:50:29;-3.10;99.90
25332;DHT22;13284;52.748;13.452;2023-02-28T01:52:59;-3.10;99.90
25332;DHT22;13284;52.748;13.452;2023-02-28T01:55:27;-3.00;99.90
25332;DHT22;13284;52.748;13.452;2023-02-28T01:57:56;-3.10;99.90
25332;DHT22;13284;52.748;13.452;2023-02-28T02:00:24;-3.10;99.90
25332;DHT22;13284;52.748;13.452;2023-02-28T02:02:55;-3.10;99.90
25332;DHT22;13284;52.748;13.452;2023-02-28T02:05:25;-3.10;99.90
25332;DHT22;13284;52.748;13.452;2023-02-28T02:07:54;-3.10;99.90
25332;DHT22;13284;52.748;13.452;2023-02-28T02:10:29;-3.10;99.90
25332;DHT22;13284;52.748;13.452;2023-02-28T02:13:11;-3.20;99.90
25332;DHT22;13284;52.748;13.452;2023-02-28T02:18:32;-3.20;99.90
25332;DHT22;13284;52.748;13.452;2023-02-28T02:30:00;-3.20;99.90
25332;DHT22;13284;52.748;13.452;2023-02-28T02:32:44;-3.30;99.90
25332;DHT22;13284;52.748;13.452;2023-02-28T02:35:34;-3.30;99.90
25332;DHT22;13284;52.748;13.452;2023-02-28T02:38:19;-3.40;99.90
25332;DHT22;13284;52.748;13.452;2023-02-28T02:41:08;-3.50;99.90
25332;DHT22;13284;52.748;13.452;2023-02-28T02:43:44;-3.50;99.90
25332;DHT22;13284;52.748;13.452;2023-02-28T02:46:17;-3.50;99.90
25332;DHT22;13284;52.748;13.452;2023-02-28T02:48:45;-3.50;99.90
25332;DHT22;13284;52.748;13.452;2023-02-28T02:51:14;-3.50;99.90
25332;DHT22;13284;52.748;13.452;2023-02-28T02:53:52;-3.50;99.90
25332;DHT22;13284;52.748;13.452;2023-02-28T02:56:23;-3.50;99.90
25332;DHT22;13284;52.748;13.452;2023-02-28T02:58:51;-3.50;99.90
25332;DHT22;13284;52.748;13.452;2023-02-28T03:01:21;-3.60;99.90
25332;DHT22;13284;52.748;13.452;2023-02-28T03:04:05;-3.50;99.90
25332;DHT22;13284;52.748;13.452;2023-02-28T03:06:32;-3.60;99.90
25332;DHT22;13284;52.748;13.452;2023-02-28T03:08:57;-3.60;99.90
25332;DHT22;13284;52.748;13.452;2023-02-28T03:11:24;-3.70;99.90
25332;DHT22;13284;52.748;13.452;2023-02-28T03:14:10;-3.70;99.90
25332;DHT22;13284;52.748;13.452;2023-02-28T03:24:57;-3.70;99.90
25332;DHT22;13284;52.748;13.452;2023-02-28T03:27:27;-3.70;99.90
25332;DHT22;13284;52.748;13.452;2023-02-28T03:32:36;-3.70;99.90
25332;DHT22;13284;52.748;13.452;2023-02-28T03:35:12;-3.70;99.90
25332;DHT22;13284;52.748;13.452;2023-02-28T03:37:41;-3.70;99.90
25332;DHT22;13284;52.748;13.452;2023-02-28T03:40:17;-3.70;99.90
25332;DHT22;13284;52.748;13.452;2023-02-28T03:42:48;-3.80;99.90
25332;DHT22;13284;52.748;13.452;2023-02-28T03:45:21;-3.70;99.90
25332;DHT22;13284;52.748;13.452;2023-02-28T03:48:02;-3.80;99.90
25332;DHT22;13284;52.748;13.452;2023-02-28T03:50:37;-3.80;99.90
25332;DHT22;13284;52.748;13.452;2023-02-28T03:56:05;-3.90;99.90
25332;DHT22;13284;52.748;13.452;2023-02-28T03:58:47;-3.90;99.90
25332;DHT22;13284;52.748;13.452;2023-02-28T04:01:25;-3.90;99.90
25332;DHT22;13284;52.748;13.452;2023-02-28T04:03:53;-3.80;99.90
25332;DHT22;13284;52.748;13.452;2023-02-28T04:06:20;-3.90;99.90
25332;DHT22;13284;52.748;13.452;2023-02-28T04:08:46;-4.00;99.90
25332;DHT22;13284;52.748;13.452;2023-02-28T04:11:45;-4.00;99.90
25332;DHT22;13284;52.748;13.452;2023-02-28T04:14:12;-4.00;99.90
25332;DHT22;13284;52.748;13.452;2023-02-28T04:16:40;-3.90;99.90
25332;DHT22;13284;52.748;13.452;2023-02-28T04:19:07;-4.00;99.90
25332;DHT22;13284;52.748;13.452;2023-02-28T04:21:36;-4.00;99.90
25332;DHT22;13284;52.748;13.452;2023-02-28T04:24:02;-4.00;99.90
25332;DHT22;13284;52.748;13.452;2023-02-28T04:26:33;-4.00;99.90
25332;DHT22;13284;52.748;13.452;2023-02-28T04:28:59;-4.10;99.90
25332;DHT22;13284;52.748;13.452;2023-02-28T04:31:25;-4.10;99.90
25332;DHT22;13284;52.748;13.452;2023-02-28T04:33:50;-4.10;99.90
25332;DHT22;13284;52.748;13.452;2023-02-28T04:36:16;-4.10;99.90
25332;DHT22;13284;52.748;13.452;2023-02-28T04:38:44;-4.10;99.90
25332;DHT22;13284;52.748;13.452;2023-02-28T04:41:10;-4.10;99.90
25332;DHT22;13284;52.748;13.452;2023-02-28T04:43:35;-4.20;99.90
25332;DHT22;13284;52.748;13.452;2023-02-28T04:46:03;-4.20;99.90
25332;DHT22;13284;52.748;13.452;2023-02-28T04:48:31;-4.10;99.90
25332;DHT22;13284;52.748;13.452;2023-02-28T04:51:04;-4.10;99.90
25332;DHT22;13284;52.748;13.452;2023-02-28T04:53:30;-4.10;99.90
25332;DHT22;13284;52.748;13.452;2023-02-28T04:55:57;-4.10;99.90
25332;DHT22;13284;52.748;13.452;2023-02-28T04:58:22;-4.10;99.90
25332;DHT22;13284;52.748;13.452;2023-02-28T05:00:52;-4.10;99.90
25332;DHT22;13284;52.748;13.452;2023-02-28T05:03:20;-4.10;99.90
25332;DHT22;13284;52.748;13.452;2023-02-28T05:05:47;-4.20;99.90
25332;DHT22;13284;52.748;13.452;2023-02-28T05:08:14;-4.20;99.90
25332;DHT22;13284;52.748;13.452;2023-02-28T05:10:40;-4.20;99.90
25332;DHT22;13284;52.748;13.452;2023-02-28T05:13:05;-4.30;99.90
25332;DHT22;13284;52.748;13.452;2023-02-28T05:15:31;-4.30;99.90
25332;DHT22;13284;52.748;13.452;2023-02-28T05:17:56;-4.30;99.90
25332;DHT22;13284;52.748;13.452;2023-02-28T05:20:22;-4.30;99.90
25332;DHT22;13284;52.748;13.452;2023-02-28T05:22:47;-4.30;99.90
25332;DHT22;13284;52.748;13.452;2023-02-28T05:25:18;-4.30;99.90
25332;DHT22;13284;52.748;13.452;2023-02-28T05:27:44;-4.30;99.90
25332;DHT22;13284;52.748;13.452;2023-02-28T05:30:11;-4.30;99.90
25332;DHT22;13284;52.748;13.452;2023-02-28T05:32:37;-4.40;99.90
25332;DHT22;13284;52.748;13.452;2023-02-28T05:35:04;-4.40;99.90
25332;DHT22;13284;52.748;13.452;2023-02-28T05:37:29;-4.40;99.90
25332;DHT22;13284;52.748;13.452;2023-02-28T05:39:55;-4.40;99.90
25332;DHT22;13284;52.748;13.452;2023-02-28T05:42:20;-4.40;99.90
25332;DHT22;13284;52.748;13.452;2023-02-28T05:44:46;-4.40;99.90
25332;DHT22;13284;52.748;13.452;2023-02-28T05:47:12;-4.50;99.90
25332;DHT22;13284;52.748;13.452;2023-02-28T05:49:41;-4.50;99.90
25332;DHT22;13284;52.748;13.452;2023-02-28T05:52:06;-4.40;99.90
25332;DHT22;13284;52.748;13.452;2023-02-28T05:54:32;-4.30;99.90
25332;DHT22;13284;52.748;13.452;2023-02-28T05:56:58;-4.40;99.90
25332;DHT22;13284;52.748;13.452;2023-02-28T05:59:23;-4.40;99.90
25332;DHT22;13284;52.748;13.452;2023-02-28T06:01:49;-4.40;99.90
25332;DHT22;13284;52.748;13.452;2023-02-28T06:04:16;-4.60;99.90
25332;DHT22;13284;52.748;13.452;2023-02-28T06:06:44;-4.60;99.90
25332;DHT22;13284;52.748;13.452;2023-02-28T06:09:11;-4.50;99.90
25332;DHT22;13284;52.748;13.452;2023-02-28T06:11:37;-4.50;99.90
25332;DHT22;13284;52.748;13.452;2023-02-28T06:14:04;-4.50;99.90
25332;DHT22;13284;52.748;13.452;2023-02-28T06:16:32;-4.50;99.90
25332;DHT22;13284;52.748;13.452;2023-02-28T06:19:00;-4.50;99.90
25332;DHT22;13284;52.748;13.452;2023-02-28T06:21:25;-4.40;99.90
25332;DHT22;13284;52.748;13.452;2023-02-28T06:23:52;-4.40;99.90
25332;DHT22;13284;52.748;13.452;2023-02-28T06:26:21;-4.40;99.90
25332;DHT22;13284;52.748;13.452;2023-02-28T06:28:46;-4.40;99.90
25332;DHT22;13284;52.748;13.452;2023-02-28T06:31:21;-4.40;99.90
25332;DHT22;13284;52.748;13.452;2023-02-28T06:33:48;-4.30;99.90
25332;DHT22;13284;52.748;13.452;2023-02-28T06:36:15;-4.30;99.90
25332;DHT22;13284;52.748;13.452;2023-02-28T06:38:43;-4.30;99.90
25332;DHT22;13284;52.748;13.452;2023-02-28T06:41:09;-4.30;99.90
25332;DHT22;13284;52.748;13.452;2023-02-28T06:43:38;-4.20;99.90
25332;DHT22;13284;52.748;13.452;2023-02-28T06:46:05;-4.20;99.90
25332;DHT22;13284;52.748;13.452;2023-02-28T06:48:32;-4.20;99.90
25332;DHT22;13284;52.748;13.452;2023-02-28T06:51:13;-4.10;99.90
25332;DHT22;13284;52.748;13.452;2023-02-28T06:53:40;-4.10;99.90
25332;DHT22;13284;52.748;13.452;2023-02-28T06:56:07;-4.10;99.90
25332;DHT22;13284;52.748;13.452;2023-02-28T06:58:34;-4.00;99.90
25332;DHT22;13284;52.748;13.452;2023-02-28T07:01:00;-3.90;99.90
25332;DHT22;13284;52.748;13.452;2023-02-28T07:03:28;-3.90;99.90
25332;DHT22;13284;52.748;13.452;2023-02-28T07:05:54;-3.80;99.90
25332;DHT22;13284;52.748;13.452;2023-02-28T07:08:22;-3.80;99.90
25332;DHT22;13284;52.748;13.452;2023-02-28T07:10:51;-3.70;99.90
25332;DHT22;13284;52.748;13.452;2023-02-28T07:13:17;-3.70;99.90
25332;DHT22;13284;52.748;13.452;2023-02-28T07:15:42;-3.60;99.90
25332;DHT22;13284;52.748;13.452;2023-02-28T07:18:10;-3.60;99.90
25332;DHT22;13284;52.748;13.452;2023-02-28T07:20:35;-3.40;99.90
25332;DHT22;13284;52.748;13.452;2023-02-28T07:23:01;-3.40;99.90
25332;DHT22;13284;52.748;13.452;2023-02-28T07:25:28;-3.30;99.90
25332;DHT22;13284;52.748;13.452;2023-02-28T07:27:56;-3.30;99.90
25332;DHT22;13284;52.748;13.452;2023-02-28T07:30:22;-3.20;99.90
25332;DHT22;13284;52.748;13.452;2023-02-28T07:32:50;-3.10;99.90
25332;DHT22;13284;52.748;13.452;2023-02-28T07:35:16;-3.10;99.90
25332;DHT22;13284;52.748;13.452;2023-02-28T07:37:43;-2.90;99.90
25332;DHT22;13284;52.748;13.452;2023-02-28T07:40:10;-2.80;99.90
25332;DHT22;13284;52.748;13.452;2023-02-28T07:42:41;-2.70;99.90
25332;DHT22;13284;52.748;13.452;2023-02-28T07:45:07;-2.60;99.90
25332;DHT22;13284;52.748;13.452;2023-02-28T07:47:35;-2.50;99.90
25332;DHT22;13284;52.748;13.452;2023-02-28T07:50:05;-2.50;99.90
25332;DHT22;13284;52.748;13.452;2023-02-28T07:52:31;-2.40;99.90
25332;DHT22;13284;52.748;13.452;2023-02-28T07:54:57;-2.30;99.90
25332;DHT22;13284;52.748;13.452;2023-02-28T07:57:23;-2.20;99.90
25332;DHT22;13284;52.748;13.452;2023-02-28T07:59:48;-2.00;99.90
25332;DHT22;13284;52.748;13.452;2023-02-28T08:02:15;-1.80;99.90
25332;DHT22;13284;52.748;13.452;2023-02-28T08:04:41;-1.80;99.90
25332;DHT22;13284;52.748;13.452;2023-02-28T08:07:07;-1.60;99.90
25332;DHT22;13284;52.748;13.452;2023-02-28T08:09:33;-1.40;99.90
25332;DHT22;13284;52.748;13.452;2023-02-28T08:11:59;-1.30;99.90
25332;DHT22;13284;52.748;13.452;2023-02-28T08:14:25;-1.10;99.90
25332;DHT22;13284;52.748;13.452;2023-02-28T08:16:50;-1.10;99.90
25332;DHT22;13284;52.748;13.452;2023-02-28T08:19:16;-0.90;99.90
25332;DHT22;13284;52.748;13.452;2023-02-28T08:21:41;-0.80;99.90
25332;DHT22;13284;52.748;13.452;2023-02-28T08:24:07;-0.70;99.90
25332;DHT22;13284;52.748;13.452;2023-02-28T08:26:33;-0.60;99.90
25332;DHT22;13284;52.748;13.452;2023-02-28T08:28:58;-0.50;99.90
25332;DHT22;13284;52.748;13.452;2023-02-28T08:31:24;-0.40;99.90
25332;DHT22;13284;52.748;13.452;2023-02-28T08:33:49;-0.20;99.90
25332;DHT22;13284;52.748;13.452;2023-02-28T08:36:17;-0.20;99.90
25332;DHT22;13284;52.748;13.452;2023-02-28T08:38:43;-0.10;99.90
25332;DHT22;13284;52.748;13.452;2023-02-28T08:41:10;0.00;99.90
25332;DHT22;13284;52.748;13.452;2023-02-28T08:43:37;0.10;99.90
25332;DHT22;13284;52.748;13.452;2023-02-28T08:46:04;0.30;99.90
25332;DHT22;13284;52.748;13.452;2023-02-28T08:48:31;0.40;99.90
25332;DHT22;13284;52.748;13.452;2023-02-28T08:51:07;0.60;99.90
25332;DHT22;13284;52.748;13.452;2023-02-28T08:53:35;0.80;99.90
25332;DHT22;13284;52.748;13.452;2023-02-28T08:58:31;1.10;99.90
25332;DHT22;13284;52.748;13.452;2023-02-28T09:00:57;1.20;99.90
25332;DHT22;13284;52.748;13.452;2023-02-28T09:03:23;1.40;99.90
25332;DHT22;13284;52.748;13.452;2023-02-28T09:05:59;1.60;99.90
25332;DHT22;13284;52.748;13.452;2023-02-28T09:08:27;1.80;99.90
25332;DHT22;13284;52.748;13.452;2023-02-28T09:10:53;2.00;99.90
25332;DHT22;13284;52.748;13.452;2023-02-28T09:13:20;2.20;99.90
25332;DHT22;13284;52.748;13.452;2023-02-28T09:15:45;2.40;99.90
25332;DHT22;13284;52.748;13.452;2023-02-28T09:18:11;2.50;99.90
25332;DHT22;13284;52.748;13.452;2023-02-28T09:20:40;2.60;99.90
25332;DHT22;13284;52.748;13.452;2023-02-28T09:23:07;2.90;99.90
25332;DHT22;13284;52.748;13.452;2023-02-28T09:25:34;3.10;99.90
25332;DHT22;13284;52.748;13.452;2023-02-28T09:28:00;3.50;99.90
25332;DHT22;13284;52.748;13.452;2023-02-28T09:30:26;3.80;99.90
25332;DHT22;13284;52.748;13.452;2023-02-28T09:32:52;4.20;99.90
25332;DHT22;13284;52.748;13.452;2023-02-28T09:35:19;4.40;99.90
25332;DHT22;13284;52.748;13.452;2023-02-28T09:37:46;4.80;99.90
25332;DHT22;13284;52.748;13.452;2023-02-28T09:40:12;5.00;99.90
25332;DHT22;13284;52.748;13.452;2023-02-28T09:42:40;4.90;99.90
25332;DHT22;13284;52.748;13.452;2023-02-28T09:45:29;4.80;99.90
25332;DHT22;13284;52.748;13.452;2023-02-28T09:48:01;4.80;99.90
25332;DHT22;13284;52.748;13.452;2023-02-28T09:50:38;4.90;99.90
25332;DHT22;13284;52.748;13.452;2023-02-28T09:53:21;5.20;99.90
25332;DHT22;13284;52.748;13.452;2023-02-28T09:56:04;5.50;99.90
25332;DHT22;13284;52.748;13.452;2023-02-28T09:58:52;5.80;99.90
25332;DHT22;13284;52.748;13.452;2023-02-28T10:04:04;6.20;99.90
25332;DHT22;13284;52.748;13.452;2023-02-28T10:06:41;6.20;99.90
25332;DHT22;13284;52.748;13.452;2023-02-28T10:09:29;6.00;99.90
25332;DHT22;13284;52.748;13.452;2023-02-28T10:12:00;5.80;99.90
25332;DHT22;13284;52.748;13.452;2023-02-28T10:14:29;5.90;99.90
25332;DHT22;13284;52.748;13.452;2023-02-28T10:17:01;5.80;99.90
25332;DHT22;13284;52.748;13.452;2023-02-28T10:22:21;6.10;99.90
25332;DHT22;13284;52.748;13.452;2023-02-28T10:24:52;6.60;99.90
25332;DHT22;13284;52.748;13.452;2023-02-28T10:27:24;6.40;99.90
25332;DHT22;13284;52.748;13.452;2023-02-28T10:29:52;6.70;99.90
25332;DHT22;13284;52.748;13.452;2023-02-28T10:32:20;6.80;99.90
25332;DHT22;13284;52.748;13.452;2023-02-28T10:34:54;7.00;99.90
25332;DHT22;13284;52.748;13.452;2023-02-28T10:37:20;7.20;99.90
25332;DHT22;13284;52.748;13.452;2023-02-28T10:39:47;7.40;99.90
25332;DHT22;13284;52.748;13.452;2023-02-28T10:42:27;7.50;99.90
25332;DHT22;13284;52.748;13.452;2023-02-28T10:45:15;7.20;99.90
25332;DHT22;13284;52.748;13.452;2023-02-28T10:55:36;7.40;99.90
25332;DHT22;13284;52.748;13.452;2023-02-28T10:58:01;7.50;99.90
25332;DHT22;13284;52.748;13.452;2023-02-28T11:00:33;7.70;99.90
25332;DHT22;13284;52.748;13.452;2023-02-28T11:03:00;8.20;99.90
25332;DHT22;13284;52.748;13.452;2023-02-28T11:05:28;8.20;99.90
25332;DHT22;13284;52.748;13.452;2023-02-28T11:07:57;8.20;99.90
25332;DHT22;13284;52.748;13.452;2023-02-28T11:10:28;7.70;99.90
25332;DHT22;13284;52.748;13.452;2023-02-28T11:12:56;8.30;99.90
25332;DHT22;13284;52.748;13.452;2023-02-28T11:15:34;8.90;99.90
25332;DHT22;13284;52.748;13.452;2023-02-28T11:18:05;8.90;99.90
25332;DHT22;13284;52.748;13.452;2023-02-28T11:20:34;9.20;99.90
25332;DHT22;13284;52.748;13.452;2023-02-28T11:23:01;8.90;99.90
25332;DHT22;13284;52.748;13.452;2023-02-28T11:25:36;9.20;99.90
25332;DHT22;13284;52.748;13.452;2023-02-28T11:28:05;9.40;99.90
25332;DHT22;13284;52.748;13.452;2023-02-28T11:30:40;9.50;99.90
25332;DHT22;13284;52.748;13.452;2023-02-28T11:35:50;9.50;99.90
25332;DHT22;13284;52.748;13.452;2023-02-28T11:38:16;9.70;99.90
25332;DHT22;13284;52.748;13.452;2023-02-28T11:46:37;9.80;99.90
25332;DHT22;13284;52.748;13.452;2023-02-28T12:03:50;9.10;99.90
25332;DHT22;13284;52.748;13.452;2023-02-28T12:06:36;9.60;99.90
25332;DHT22;13284;52.748;13.452;2023-02-28T12:09:17;8.90;99.90
25332;DHT22;13284;52.748;13.452;2023-02-28T12:12:07;8.50;99.90
25332;DHT22;13284;52.748;13.452;2023-02-28T12:14:53;9.40;99.90
25332;DHT22;13284;52.748;13.452;2023-02-28T12:17:55;9.80;99.90
25332;DHT22;13284;52.748;13.452;2023-02-28T12:23:21;10.60;99.90
25332;DHT22;13284;52.748;13.452;2023-02-28T12:26:12;10.60;99.90
25332;DHT22;13284;52.748;13.452;2023-02-28T12:29:07;10.40;99.90
25332;DHT22;13284;52.748;13.452;2023-02-28T12:31:38;10.40;99.90
25332;DHT22;13284;52.748;13.452;2023-02-28T12:34:12;10.30;99.90
25332;DHT22;13284;52.748;13.452;2023-02-28T12:36:39;10.20;99.90
25332;DHT22;13284;52.748;13.452;2023-02-28T12:39:15;9.80;99.90
25332;DHT22;13284;52.748;13.452;2023-02-28T12:41:55;9.80;99.90
25332;DHT22;13284;52.748;13.452;2023-02-28T12:44:44;9.50;99.90
25332;DHT22;13284;52.748;13.452;2023-02-28T12:47:16;9.80;99.90
25332;DHT22;13284;52.748;13.452;2023-02-28T12:50:06;10.30;99.90
25332;DHT22;13284;52.748;13.452;2023-02-28T12:55:23;11.20;99.90
25332;DHT22;13284;52.748;13.452;2023-02-28T12:58:03;11.80;98.90
25332;DHT22;13284;52.748;13.452;2023-02-28T13:00:36;11.70;99.20
25332;DHT22;13284;52.748;13.452;2023-02-28T13:03:16;11.80;99.20
25332;DHT22;13284;52.748;13.452;2023-02-28T13:06:05;11.50;96.90
25332;DHT22;13284;52.748;13.452;2023-02-28T13:11:46;11.90;96.10
25332;DHT22;13284;52.748;13.452;2023-02-28T13:14:27;11.90;97.60
25332;DHT22;13284;52.748;13.452;2023-02-28T13:17:03;11.80;96.80
25332;DHT22;13284;52.748;13.452;2023-02-28T13:19:37;11.40;96.80
25332;DHT22;13284;52.748;13.452;2023-02-28T13:22:05;11.80;96.00
25332;DHT22;13284;52.748;13.452;2023-02-28T13:29:50;10.80;95.50
25332;DHT22;13284;52.748;13.452;2023-02-28T13:32:28;10.80;96.30
25332;DHT22;13284;52.748;13.452;2023-02-28T13:39:59;11.20;97.40
25332;DHT22;13284;52.748;13.452;2023-02-28T13:42:37;10.60;96.90
25332;DHT22;13284;52.748;13.452;2023-02-28T13:47:44;10.60;96.40
25332;DHT22;13284;52.748;13.452;2023-02-28T13:50:40;10.70;96.40
25332;DHT22;13284;52.748;13.452;2023-02-28T14:04:33;9.70;97.20
25332;DHT22;13284;52.748;13.452;2023-02-28T14:07:04;9.50;97.00
25332;DHT22;13284;52.748;13.452;2023-02-28T14:09:40;10.50;98.10
25332;DHT22;13284;52.748;13.452;2023-02-28T14:18:16;10.30;96.80
25332;DHT22;13284;52.748;13.452;2023-02-28T14:20:43;10.00;97.00
25332;DHT22;13284;52.748;13.452;2023-02-28T14:23:20;10.40;96.90
25332;DHT22;13284;52.748;13.452;2023-02-28T14:31:13;10.30;96.90
25332;DHT22;13284;52.748;13.452;2023-02-28T14:36:26;10.50;96.70
25332;DHT22;13284;52.748;13.452;2023-02-28T14:38:55;9.90;96.90
25332;DHT22;13284;52.748;13.452;2023-02-28T14:41:31;9.00;98.00
25332;DHT22;13284;52.748;13.452;2023-02-28T14:44:01;8.90;99.40
25332;DHT22;13284;52.748;13.452;2023-02-28T14:46:36;9.10;98.80
25332;DHT22;13284;52.748;13.452;2023-02-28T14:49:04;9.20;99.10
25332;DHT22;13284;52.748;13.452;2023-02-28T14:51:31;9.50;99.10
25332;DHT22;13284;52.748;13.452;2023-02-28T14:54:00;9.30;98.10
25332;DHT22;13284;52.748;13.452;2023-02-28T14:56:36;9.30;98.90
25332;DHT22;13284;52.748;13.452;2023-02-28T14:59:03;9.40;98.00
25332;DHT22;13284;52.748;13.452;2023-02-28T15:01:28;9.40;98.60
25332;DHT22;13284;52.748;13.452;2023-02-28T15:04:04;9.80;99.00
25332;DHT22;13284;52.748;13.452;2023-02-28T15:06:30;10.00;98.10
25332;DHT22;13284;52.748;13.452;2023-02-28T15:09:16;9.50;97.60
25332;DHT22;13284;52.748;13.452;2023-02-28T15:11:46;9.10;98.20
25332;DHT22;13284;52.748;13.452;2023-02-28T15:14:18;9.00;98.60
25332;DHT22;13284;52.748;13.452;2023-02-28T15:16:47;8.50;98.50
25332;DHT22;13284;52.748;13.452;2023-02-28T15:19:23;8.50;99.30
25332;DHT22;13284;52.748;13.452;2023-02-28T15:22:14;8.40;99.50
25332;DHT22;13284;52.748;13.452;2023-02-28T15:24:50;8.30;99.40
25332;DHT22;13284;52.748;13.452;2023-02-28T15:27:26;8.30;99.30
25332;DHT22;13284;52.748;13.452;2023-02-28T15:29:57;8.20;99.50
25332;DHT22;13284;52.748;13.452;2023-02-28T15:32:30;8.00;99.40
25332;DHT22;13284;52.748;13.452;2023-02-28T15:34:57;7.80;98.40
25332;DHT22;13284;52.748;13.452;2023-02-28T15:37:40;7.50;99.30
25332;DHT22;13284;52.748;13.452;2023-02-28T15:40:26;7.40;99.80
25332;DHT22;13284;52.748;13.452;2023-02-28T15:43:14;7.30;99.90
25332;DHT22;13284;52.748;13.452;2023-02-28T15:45:49;7.00;99.90
25332;DHT22;13284;52.748;13.452;2023-02-28T15:50:44;6.90;99.90
25332;DHT22;13284;52.748;13.452;2023-02-28T15:53:14;7.00;99.90
25332;DHT22;13284;52.748;13.452;2023-02-28T15:55:40;6.90;99.90
25332;DHT22;13284;52.748;13.452;2023-02-28T15:58:10;6.90;99.90
25332;DHT22;13284;52.748;13.452;2023-02-28T16:00:38;7.00;99.90
25332;DHT22;13284;52.748;13.452;2023-02-28T16:03:35;6.80;99.90
25332;DHT22;13284;52.748;13.452;2023-02-28T16:08:47;6.20;99.90
25332;DHT22;13284;52.748;13.452;2023-02-28T16:11:14;6.30;99.90
25332;DHT22;13284;52.748;13.452;2023-02-28T16:13:39;6.30;99.90
25332;DHT22;13284;52.748;13.452;2023-02-28T16:16:05;6.10;99.90
25332;DHT22;13284;52.748;13.452;2023-02-28T16:18:31;6.10;99.90
25332;DHT22;13284;52.748;13.452;2023-02-28T16:20:56;5.90;99.90
25332;DHT22;13284;52.748;13.452;2023-02-28T16:23:22;5.80;99.90
25332;DHT22;13284;52.748;13.452;2023-02-28T16:25:47;5.70;99.90
25332;DHT22;13284;52.748;13.452;2023-02-28T16:28:23;5.50;99.90
25332;DHT22;13284;52.748;13.452;2023-02-28T16:30:52;5.40;99.90
25332;DHT22;13284;52.748;13.452;2023-02-28T16:33:18;5.30;99.90
25332;DHT22;13284;52.748;13.452;2023-02-28T16:35:43;5.20;99.90
25332;DHT22;13284;52.748;13.452;2023-02-28T16:38:09;5.00;99.90
25332;DHT22;13284;52.748;13.452;2023-02-28T16:40:35;4.70;99.90
25332;DHT22;13284;52.748;13.452;2023-02-28T16:43:05;4.70;99.90
25332;DHT22;13284;52.748;13.452;2023-02-28T16:45:32;4.50;99.90
25332;DHT22;13284;52.748;13.452;2023-02-28T16:47:59;4.30;99.90
25332;DHT22;13284;52.748;13.452;2023-02-28T16:50:27;4.20;99.90
25332;DHT22;13284;52.748;13.452;2023-02-28T16:52:53;4.10;99.90
25332;DHT22;13284;52.748;13.452;2023-02-28T16:55:20;4.00;99.90
25332;DHT22;13284;52.748;13.452;2023-02-28T16:57:53;3.90;99.90
25332;DHT22;13284;52.748;13.452;2023-02-28T17:00:19;3.80;99.90
25332;DHT22;13284;52.748;13.452;2023-02-28T17:02:45;3.60;99.90
25332;DHT22;13284;52.748;13.452;2023-02-28T17:05:12;3.50;99.90
25332;DHT22;13284;52.748;13.452;2023-02-28T17:07:39;3.30;99.90
25332;DHT22;13284;52.748;13.452;2023-02-28T17:10:25;3.20;99.90
25332;DHT22;13284;52.748;13.452;2023-02-28T17:12:51;3.10;99.90
25332;DHT22;13284;52.748;13.452;2023-02-28T17:15:18;3.00;99.90
25332;DHT22;13284;52.748;13.452;2023-02-28T17:17:46;2.90;99.90
25332;DHT22;13284;52.748;13.452;2023-02-28T17:20:17;2.80;99.90
25332;DHT22;13284;52.748;13.452;2023-02-28T17:26:05;2.50;99.90
25332;DHT22;13284;52.748;13.452;2023-02-28T17:28:32;2.40;99.90
25332;DHT22;13284;52.748;13.452;2023-02-28T17:30:57;2.30;99.90
25332;DHT22;13284;52.748;13.452;2023-02-28T17:33:23;2.20;99.90
25332;DHT22;13284;52.748;13.452;2023-02-28T17:35:48;2.10;99.90
25332;DHT22;13284;52.748;13.452;2023-02-28T17:38:16;2.00;99.90
25332;DHT22;13284;52.748;13.452;2023-02-28T17:40:42;1.90;99.90